createdAt,value
2023-01-20T00:01:46.598Z,-2.20
2023-01-20T00:04:13.879Z,-2.30
2023-01-20T00:06:40.728Z,-2.30
2023-01-20T00:09:08.235Z,-2.30
2023-01-20T00:11:35.048Z,-2.30
2023-01-20T00:14:03.019Z,-2.40
2023-01-20T00:16:32.030Z,-2.40
2023-01-20T00:18:58.953Z,-2.40
2023-01-20T00:21:25.717Z,-2.50
2023-01-20T00:23:52.674Z,-2.50
2023-01-20T00:26:22.079Z,-2.50
2023-01-20T00:28:49.946Z,-2.50
2023-01-20T00:31:17.931Z,-2.50
2023-01-20T00:33:45.844Z,-2.50
2023-01-20T00:36:14.009Z,-2.50
2023-01-20T00:38:41.000Z,-2.50
2023-01-20T00:41:08.592Z,-2.50
2023-01-20T00:43:36.173Z,-2.50
2023-01-20T00:46:04.127Z,-2.50
2023-01-20T00:48:31.011Z,-2.50
2023-01-20T00:50:58.232Z,-2.50
2023-01-20T00:53:25.281Z,-2.50
2023-01-20T00:55:52.117Z,-2.50
2023-01-20T00:58:19.115Z,-2.50
2023-01-20T01:00:50.643Z,-2.50
2023-01-20T01:03:18.301Z,-2.50
2023-01-20T01:05:45.951Z,-2.50
2023-01-20T01:08:13.608Z,-2.50
2023-01-20T01:10:40.790Z,-2.50
2023-01-20T01:13:08.366Z,-2.40
2023-01-20T01:15:35.816Z,-2.40
2023-01-20T01:18:03.375Z,-2.40
2023-01-20T01:20:30.661Z,-2.40
2023-01-20T01:22:57.527Z,-2.40
2023-01-20T01:25:24.486Z,-2.40
2023-01-20T01:27:51.342Z,-2.40
2023-01-20T01:30:18.247Z,-2.30
2023-01-20T01:32:45.121Z,-2.30
2023-01-20T01:35:12.300Z,-2.30
2023-01-20T01:37:39.535Z,-2.30
2023-01-20T01:40:07.146Z,-2.30
2023-01-20T01:42:34.159Z,-2.30
2023-01-20T01:45:10.159Z,-2.30
2023-01-20T01:47:46.463Z,-2.30
2023-01-20T01:50:19.726Z,-2.30
2023-01-20T01:52:49.496Z,-2.30
2023-01-20T01:55:17.592Z,-2.30
2023-01-20T01:57:45.060Z,-2.30
2023-01-20T02:00:12.573Z,-2.30
2023-01-20T02:02:43.704Z,-2.30
2023-01-20T02:05:13.437Z,-2.30
2023-01-20T02:07:42.361Z,-2.30
2023-01-20T02:10:09.794Z,-2.30
2023-01-20T02:12:36.820Z,-2.20
2023-01-20T02:15:05.403Z,-2.30
2023-01-20T02:17:34.043Z,-2.20
2023-01-20T02:20:16.523Z,-2.20
2023-01-20T02:23:10.756Z,-2.20
2023-01-20T02:26:04.705Z,-2.20
2023-01-20T02:28:46.860Z,-2.10
2023-01-20T02:31:50.561Z,-2.10
2023-01-20T02:34:31.624Z,-2.10
2023-01-20T02:37:06.492Z,-2.00
2023-01-20T02:39:55.753Z,-2.00
2023-01-20T02:42:35.023Z,-1.90
2023-01-20T02:45:28.211Z,-1.90
2023-01-20T02:48:25.858Z,-1.90
2023-01-20T02:50:59.195Z,-1.90
2023-01-20T02:53:32.382Z,-1.90
2023-01-20T02:55:59.709Z,-1.90
2023-01-20T02:58:38.124Z,-1.90
2023-01-20T03:01:13.798Z,-1.90
2023-01-20T03:03:45.884Z,-1.90
2023-01-20T03:06:19.087Z,-2.00
2023-01-20T03:08:48.704Z,-2.00
2023-01-20T03:11:16.235Z,-2.00
2023-01-20T03:14:11.576Z,-2.00
2023-01-20T03:16:39.847Z,-2.00
2023-01-20T03:19:06.808Z,-2.00
2023-01-20T03:21:35.026Z,-1.90
2023-01-20T03:24:03.411Z,-2.00
2023-01-20T03:26:31.063Z,-1.90
2023-01-20T03:28:58.933Z,-2.00
2023-01-20T03:31:32.967Z,-1.90
2023-01-20T03:34:03.204Z,-1.90
2023-01-20T03:36:31.856Z,-1.90
2023-01-20T03:38:59.280Z,-1.90
2023-01-20T03:41:47.831Z,-1.90
2023-01-20T03:44:40.580Z,-2.00
2023-01-20T03:47:48.470Z,-1.90
2023-01-20T03:50:34.703Z,-1.90
2023-01-20T03:53:27.451Z,-1.90
2023-01-20T03:56:03.023Z,-1.90
2023-01-20T03:58:36.156Z,-1.90
2023-01-20T04:01:15.584Z,-1.90
2023-01-20T04:03:48.198Z,-1.90
2023-01-20T04:06:17.911Z,-1.90
2023-01-20T04:08:49.413Z,-2.00
2023-01-20T04:11:16.565Z,-1.90
2023-01-20T04:13:43.517Z,-1.90
2023-01-20T04:16:17.035Z,-1.90
2023-01-20T04:18:47.101Z,-1.90
2023-01-20T04:21:24.403Z,-1.90
2023-01-20T04:24:01.288Z,-1.90
2023-01-20T04:26:28.061Z,-1.80
2023-01-20T04:28:54.837Z,-1.70
2023-01-20T04:31:30.539Z,-1.70
2023-01-20T04:33:58.365Z,-1.70
2023-01-20T04:36:25.240Z,-1.70
2023-01-20T04:38:52.079Z,-1.70
2023-01-20T04:41:19.022Z,-1.70
2023-01-20T04:43:46.764Z,-1.70
2023-01-20T04:46:14.841Z,-1.70
2023-01-20T04:48:41.736Z,-1.60
2023-01-20T04:51:08.783Z,-1.70
2023-01-20T04:53:35.795Z,-1.60
2023-01-20T04:56:02.625Z,-1.70
2023-01-20T04:58:29.443Z,-1.70
2023-01-20T05:00:56.360Z,-1.70
2023-01-20T05:03:23.244Z,-1.70
2023-01-20T05:05:54.437Z,-1.70
2023-01-20T05:08:21.698Z,-1.70
2023-01-20T05:10:48.702Z,-1.70
2023-01-20T05:13:15.793Z,-1.80
2023-01-20T05:15:43.744Z,-1.70
2023-01-20T05:18:10.792Z,-1.70
2023-01-20T05:20:37.672Z,-1.70
2023-01-20T05:23:04.791Z,-1.70
2023-01-20T05:25:31.567Z,-1.70
2023-01-20T05:27:59.288Z,-1.70
2023-01-20T05:30:26.154Z,-1.70
2023-01-20T05:32:53.002Z,-1.60
2023-01-20T05:35:20.061Z,-1.60
2023-01-20T05:37:46.916Z,-1.60
2023-01-20T05:40:14.277Z,-1.60
2023-01-20T05:42:41.155Z,-1.70
2023-01-20T05:45:09.382Z,-1.70
2023-01-20T05:47:36.236Z,-1.60
2023-01-20T05:50:04.850Z,-1.70
2023-01-20T05:52:31.797Z,-1.60
2023-01-20T05:54:58.803Z,-1.60
2023-01-20T05:57:26.078Z,-1.50
2023-01-20T05:59:52.968Z,-1.50
2023-01-20T06:02:20.414Z,-1.50
2023-01-20T06:04:47.689Z,-1.40
2023-01-20T06:07:15.397Z,-1.40
2023-01-20T06:09:42.434Z,-1.40
2023-01-20T06:12:09.423Z,-1.40
2023-01-20T06:14:36.320Z,-1.30
2023-01-20T06:17:03.161Z,-1.20
2023-01-20T06:19:30.085Z,-1.20
2023-01-20T06:21:56.962Z,-1.10
2023-01-20T06:24:23.759Z,-1.10
2023-01-20T06:26:51.435Z,-0.90
2023-01-20T06:29:18.350Z,-0.90
2023-01-20T06:31:45.681Z,-0.80
2023-01-20T06:34:12.886Z,-0.70
2023-01-20T06:36:39.984Z,-0.70
2023-01-20T06:39:07.054Z,-0.70
2023-01-20T06:41:33.969Z,-0.70
2023-01-20T06:44:03.484Z,-0.60
2023-01-20T06:46:30.452Z,-0.50
2023-01-20T06:49:00.580Z,-0.50
2023-01-20T06:51:29.986Z,-0.50
2023-01-20T06:53:57.718Z,-0.40
2023-01-20T06:56:25.047Z,-0.30
2023-01-20T06:58:52.143Z,-0.30
2023-01-20T07:01:27.478Z,-0.20
2023-01-20T07:03:54.838Z,-0.20
2023-01-20T07:06:39.028Z,-0.20
2023-01-20T07:09:08.585Z,-0.20
2023-01-20T07:11:35.952Z,-0.20
2023-01-20T07:14:04.026Z,-0.20
2023-01-20T07:16:31.283Z,-0.20
2023-01-20T07:18:58.331Z,-0.10
2023-01-20T07:21:26.675Z,-0.20
2023-01-20T07:23:54.178Z,-0.20
2023-01-20T07:26:26.529Z,-0.30
2023-01-20T07:28:53.903Z,-0.30
2023-01-20T07:31:25.427Z,-0.30
2023-01-20T07:33:54.475Z,-0.40
2023-01-20T07:36:21.286Z,-0.40
2023-01-20T07:38:50.117Z,-0.40
2023-01-20T07:41:19.704Z,-0.40
2023-01-20T07:43:48.415Z,-0.50
2023-01-20T07:46:16.557Z,-0.50
2023-01-20T07:48:43.667Z,-0.50
2023-01-20T07:51:13.162Z,-0.50
2023-01-20T07:53:46.524Z,-0.50
2023-01-20T07:56:16.146Z,-0.50
2023-01-20T07:58:45.298Z,-0.50
2023-01-20T08:01:15.800Z,-0.50
2023-01-20T08:03:43.826Z,-0.50
2023-01-20T08:06:12.766Z,-0.40
2023-01-20T08:08:39.639Z,-0.40
2023-01-20T08:11:07.757Z,-0.30
2023-01-20T08:13:35.185Z,-0.30
2023-01-20T08:16:08.825Z,-0.30
2023-01-20T08:18:36.514Z,-0.30
2023-01-20T08:21:08.447Z,-0.30
2023-01-20T08:23:36.092Z,-0.30
2023-01-20T08:26:05.908Z,-0.30
2023-01-20T08:28:37.637Z,-0.30
2023-01-20T08:31:16.243Z,-0.30
2023-01-20T08:33:43.857Z,-0.30
2023-01-20T08:36:17.352Z,-0.30
2023-01-20T08:38:44.643Z,-0.30
2023-01-20T08:41:14.661Z,-0.30
2023-01-20T08:43:42.504Z,-0.30
2023-01-20T08:46:13.404Z,-0.30
2023-01-20T08:48:42.029Z,-0.30
2023-01-20T08:51:14.700Z,-0.20
2023-01-20T08:53:42.192Z,-0.20
2023-01-20T08:56:09.923Z,-0.20
2023-01-20T08:58:36.778Z,-0.20
2023-01-20T09:01:12.007Z,-0.20
2023-01-20T09:03:39.979Z,-0.20
2023-01-20T09:06:07.842Z,-0.20
2023-01-20T09:08:34.879Z,-0.20
2023-01-20T09:11:07.464Z,-0.10
2023-01-20T09:13:34.478Z,-0.10
2023-01-20T09:16:01.413Z,-0.10
2023-01-20T09:18:28.322Z,0.00
2023-01-20T09:20:56.870Z,0.00
2023-01-20T09:23:23.699Z,0.10
2023-01-20T09:25:50.557Z,0.20
2023-01-20T09:28:17.507Z,0.30
2023-01-20T09:30:44.464Z,0.40
2023-01-20T09:33:13.167Z,0.40
2023-01-20T09:35:40.088Z,0.50
2023-01-20T09:38:25.246Z,0.70
2023-01-20T09:41:35.343Z,0.70
2023-01-20T09:44:21.263Z,0.70
2023-01-20T09:47:21.496Z,0.70
2023-01-20T09:50:34.970Z,0.70
2023-01-20T09:53:30.257Z,0.60
2023-01-20T09:55:59.691Z,0.70
2023-01-20T09:58:35.337Z,0.70
2023-01-20T10:01:30.892Z,0.70
2023-01-20T10:04:06.766Z,0.60
2023-01-20T10:06:57.970Z,0.70
2023-01-20T10:09:46.074Z,0.80
2023-01-20T10:12:15.886Z,0.80
2023-01-20T10:14:46.521Z,0.80
2023-01-20T10:17:23.697Z,0.90
2023-01-20T10:20:05.121Z,0.90
2023-01-20T10:22:42.649Z,1.00
2023-01-20T10:25:13.160Z,1.00
2023-01-20T10:27:49.241Z,1.10
2023-01-20T10:30:17.073Z,1.00
2023-01-20T10:33:03.917Z,1.00
2023-01-20T10:35:36.915Z,1.10
2023-01-20T10:38:08.709Z,1.10
2023-01-20T10:40:46.658Z,1.10
2023-01-20T10:43:15.890Z,1.10
2023-01-20T10:45:48.510Z,1.20
2023-01-20T10:48:18.196Z,1.20
2023-01-20T10:51:04.934Z,1.20
2023-01-20T10:53:34.782Z,1.30
2023-01-20T10:56:04.656Z,1.40
2023-01-20T10:58:40.980Z,1.40
2023-01-20T11:01:11.063Z,1.50
2023-01-20T11:03:42.670Z,1.60
2023-01-20T11:06:22.208Z,1.60
2023-01-20T11:08:49.756Z,1.70
2023-01-20T11:11:22.972Z,1.80
2023-01-20T11:13:54.267Z,1.80
2023-01-20T11:16:25.377Z,1.90
2023-01-20T11:19:02.007Z,1.90
2023-01-20T11:21:32.176Z,2.00
2023-01-20T11:23:59.886Z,2.00
2023-01-20T11:26:32.591Z,2.10
2023-01-20T11:29:11.337Z,2.10
2023-01-20T11:31:47.145Z,2.20
2023-01-20T11:34:25.377Z,2.20
2023-01-20T11:37:16.827Z,2.30
2023-01-20T11:39:54.497Z,2.30
2023-01-20T11:42:24.884Z,2.40
2023-01-20T11:45:01.049Z,2.50
2023-01-20T11:47:35.207Z,2.40
2023-01-20T11:50:05.166Z,2.50
2023-01-20T11:52:34.221Z,2.50
2023-01-20T11:55:13.032Z,2.50
2023-01-20T11:58:01.020Z,2.50
2023-01-20T12:00:43.950Z,2.40
2023-01-20T12:03:10.713Z,2.40
2023-01-20T12:06:07.963Z,2.40
2023-01-20T12:08:43.560Z,2.40
2023-01-20T12:11:14.838Z,2.40
2023-01-20T12:14:10.574Z,2.40
2023-01-20T12:16:39.138Z,2.50
2023-01-20T12:19:15.189Z,2.50
2023-01-20T12:21:48.234Z,2.50
2023-01-20T12:24:56.098Z,2.50
2023-01-20T12:27:28.110Z,2.50
2023-01-20T12:30:04.329Z,2.50
2023-01-20T12:32:33.263Z,2.50
2023-01-20T12:35:01.020Z,2.50
2023-01-20T12:37:52.302Z,2.40
2023-01-20T12:40:22.221Z,2.40
2023-01-20T12:43:17.157Z,2.40
2023-01-20T12:46:05.546Z,2.40
2023-01-20T12:48:59.153Z,2.40
2023-01-20T12:51:34.849Z,2.40
2023-01-20T12:54:14.475Z,2.40
2023-01-20T12:56:56.702Z,2.40
2023-01-20T13:00:09.278Z,2.40
2023-01-20T13:03:20.263Z,2.40
2023-01-20T13:06:01.151Z,2.40
2023-01-20T13:08:47.838Z,2.40
2023-01-20T13:11:37.466Z,2.50
2023-01-20T13:14:11.944Z,2.50
2023-01-20T13:16:44.581Z,2.60
2023-01-20T13:19:28.339Z,2.60
2023-01-20T13:22:07.232Z,2.60
2023-01-20T13:24:35.082Z,2.60
2023-01-20T13:27:02.953Z,2.60
2023-01-20T13:29:35.737Z,2.50
2023-01-20T13:32:03.681Z,2.60
2023-01-20T13:34:33.299Z,2.50
2023-01-20T13:37:03.430Z,2.50
2023-01-20T13:39:40.473Z,2.50
2023-01-20T13:42:29.118Z,2.50
2023-01-20T13:45:14.760Z,2.50
2023-01-20T13:48:01.165Z,2.40
2023-01-20T13:50:35.514Z,2.30
2023-01-20T13:53:28.121Z,2.30
2023-01-20T13:56:32.965Z,2.20
2023-01-20T13:59:00.183Z,2.10
2023-01-20T14:01:28.178Z,2.10
2023-01-20T14:04:21.904Z,2.00
2023-01-20T14:06:51.255Z,2.00
2023-01-20T14:09:20.900Z,1.90
2023-01-20T14:11:55.443Z,1.90
2023-01-20T14:14:25.283Z,1.80
2023-01-20T14:16:52.561Z,1.70
2023-01-20T14:19:32.674Z,1.70
2023-01-20T14:22:16.559Z,1.60
2023-01-20T14:24:45.059Z,1.60
2023-01-20T14:27:22.643Z,1.60
2023-01-20T14:29:51.653Z,1.50
2023-01-20T14:32:24.593Z,1.50
2023-01-20T14:34:52.668Z,1.40
2023-01-20T14:37:25.345Z,1.30
2023-01-20T14:39:54.933Z,1.30
2023-01-20T14:42:23.321Z,1.20
2023-01-20T14:44:52.061Z,1.10
2023-01-20T14:47:20.799Z,1.00
2023-01-20T14:49:49.760Z,1.00
2023-01-20T14:52:31.083Z,0.90
2023-01-20T14:54:58.130Z,0.80
2023-01-20T14:57:33.773Z,0.80
2023-01-20T15:00:12.846Z,0.70
2023-01-20T15:02:42.376Z,0.60
2023-01-20T15:05:40.844Z,0.60
2023-01-20T15:08:26.357Z,0.60
2023-01-20T15:11:24.076Z,0.50
2023-01-20T15:14:04.890Z,0.50
2023-01-20T15:16:43.103Z,0.50
2023-01-20T15:19:19.847Z,0.50
2023-01-20T15:21:56.547Z,0.60
2023-01-20T15:24:31.369Z,0.50
2023-01-20T15:27:00.684Z,0.60
2023-01-20T15:29:35.648Z,0.60
2023-01-20T15:32:12.750Z,0.50
2023-01-20T15:34:39.629Z,0.50
2023-01-20T15:37:18.848Z,0.50
2023-01-20T15:39:46.099Z,0.50
2023-01-20T15:42:15.150Z,0.50
2023-01-20T15:44:42.036Z,0.50
2023-01-20T15:47:31.185Z,0.50
2023-01-20T15:49:58.548Z,0.50
2023-01-20T15:52:25.347Z,0.40
2023-01-20T15:54:52.136Z,0.40
2023-01-20T15:57:19.093Z,0.50
2023-01-20T15:59:46.128Z,0.50
2023-01-20T16:02:23.446Z,0.50
2023-01-20T16:04:50.685Z,0.40
2023-01-20T16:07:19.513Z,0.50
2023-01-20T16:09:47.062Z,0.50
2023-01-20T16:12:15.294Z,0.50
2023-01-20T16:14:42.754Z,0.50
2023-01-20T16:17:19.273Z,0.60
2023-01-20T16:19:46.352Z,0.60
2023-01-20T16:22:14.039Z,0.60
2023-01-20T16:24:41.988Z,0.60
2023-01-20T16:27:20.738Z,0.60
2023-01-20T16:29:47.655Z,0.60
2023-01-20T16:32:17.341Z,0.60
2023-01-20T16:34:45.693Z,0.60
2023-01-20T16:37:14.503Z,0.70
2023-01-20T16:39:41.379Z,0.70
2023-01-20T16:42:11.639Z,0.80
2023-01-20T16:44:38.963Z,0.80
2023-01-20T16:47:06.635Z,0.80
2023-01-20T16:49:33.595Z,0.80
2023-01-20T16:52:00.537Z,0.80
2023-01-20T16:54:27.596Z,0.80
2023-01-20T16:56:54.390Z,0.80
2023-01-20T16:59:21.195Z,0.80
2023-01-20T17:01:49.320Z,0.80
2023-01-20T17:04:16.783Z,0.80
2023-01-20T17:06:43.642Z,0.80
2023-01-20T17:09:10.795Z,0.80
2023-01-20T17:11:40.347Z,0.90
2023-01-20T17:14:10.368Z,0.80
2023-01-20T17:16:39.003Z,0.80
2023-01-20T17:19:06.560Z,0.90
2023-01-20T17:21:37.414Z,0.90
2023-01-20T17:24:06.148Z,0.80
2023-01-20T17:26:34.492Z,0.80
2023-01-20T17:29:04.212Z,0.80
2023-01-20T17:31:34.511Z,0.80
2023-01-20T17:34:01.339Z,0.80
2023-01-20T17:36:29.586Z,0.80
2023-01-20T17:38:57.896Z,0.80
2023-01-20T17:41:24.805Z,0.80
2023-01-20T17:43:51.726Z,0.70
2023-01-20T17:46:22.145Z,0.70
2023-01-20T17:48:49.287Z,0.70
2023-01-20T17:51:21.593Z,0.70
2023-01-20T17:53:48.871Z,0.70
2023-01-20T17:56:16.997Z,0.70
2023-01-20T17:58:45.142Z,0.70
2023-01-20T18:01:16.273Z,0.70
2023-01-20T18:03:44.373Z,0.70
2023-01-20T18:06:13.176Z,0.70
2023-01-20T18:08:40.640Z,0.70
2023-01-20T18:11:12.800Z,0.70
2023-01-20T18:13:39.752Z,0.70
2023-01-20T18:16:08.947Z,0.70
2023-01-20T18:18:36.025Z,0.70
2023-01-20T18:21:17.619Z,0.70
2023-01-20T18:23:46.125Z,0.70
2023-01-20T18:26:14.582Z,0.80
2023-01-20T18:28:42.078Z,0.80
2023-01-20T18:31:14.442Z,0.80
2023-01-20T18:33:52.766Z,0.80
2023-01-20T18:36:30.995Z,0.80
2023-01-20T18:39:00.677Z,0.90
2023-01-20T18:41:29.780Z,0.90
2023-01-20T18:43:57.416Z,0.90
2023-01-20T18:46:25.395Z,0.90
2023-01-20T18:48:54.571Z,0.90
2023-01-20T18:51:24.659Z,0.90
2023-01-20T18:54:00.442Z,0.90
2023-01-20T18:56:28.693Z,0.90
2023-01-20T18:58:56.093Z,0.90
2023-01-20T19:01:39.516Z,0.90
2023-01-20T19:04:08.754Z,0.90
2023-01-20T19:06:38.650Z,0.90
2023-01-20T19:09:06.505Z,0.90
2023-01-20T19:11:36.415Z,0.90
2023-01-20T19:14:03.739Z,1.00
2023-01-20T19:16:32.630Z,1.00
2023-01-20T19:19:04.698Z,1.00
2023-01-20T19:21:33.140Z,1.00
2023-01-20T19:24:05.915Z,1.00
2023-01-20T19:26:35.694Z,1.00
2023-01-20T19:29:06.330Z,0.90
2023-01-20T19:31:36.003Z,1.00
2023-01-20T19:34:03.565Z,1.00
2023-01-20T19:36:30.617Z,0.90
2023-01-20T19:38:58.308Z,1.00
2023-01-20T19:41:27.853Z,1.00
2023-01-20T19:43:57.182Z,1.00
2023-01-20T19:46:29.758Z,1.00
2023-01-20T19:48:58.085Z,1.00
2023-01-20T19:51:25.874Z,1.00
2023-01-20T19:53:58.071Z,1.00
2023-01-20T19:56:27.420Z,1.00
2023-01-20T19:58:55.501Z,1.00
2023-01-20T20:01:31.119Z,1.00
2023-01-20T20:03:59.103Z,1.00
2023-01-20T20:06:35.046Z,0.90
2023-01-20T20:09:11.573Z,1.00
2023-01-20T20:11:38.977Z,0.90
2023-01-20T20:14:08.405Z,0.90
2023-01-20T20:16:36.910Z,0.90
2023-01-20T20:19:05.010Z,0.80
2023-01-20T20:21:31.902Z,0.80
2023-01-20T20:24:01.494Z,0.80
2023-01-20T20:26:31.710Z,0.70
2023-01-20T20:29:00.042Z,0.70
2023-01-20T20:31:29.349Z,0.60
2023-01-20T20:33:57.910Z,0.60
2023-01-20T20:36:28.344Z,0.50
2023-01-20T20:38:57.183Z,0.50
2023-01-20T20:41:27.251Z,0.50
2023-01-20T20:43:54.598Z,0.50
2023-01-20T20:46:21.746Z,0.40
2023-01-20T20:48:48.657Z,0.40
2023-01-20T20:51:16.956Z,0.30
2023-01-20T20:53:44.560Z,0.30
2023-01-20T20:56:14.451Z,0.30
2023-01-20T20:58:59.546Z,0.30
2023-01-20T21:01:28.988Z,0.20
2023-01-20T21:03:57.716Z,0.20
2023-01-20T21:06:25.201Z,0.10
2023-01-20T21:08:52.722Z,0.10
2023-01-20T21:11:24.157Z,0.00
2023-01-20T21:13:52.294Z,0.00
2023-01-20T21:16:22.796Z,0.00
2023-01-20T21:18:52.145Z,0.00
2023-01-20T21:21:19.669Z,-0.10
2023-01-20T21:23:55.259Z,-0.10
2023-01-20T21:26:24.305Z,-0.10
2023-01-20T21:28:51.286Z,-0.20
2023-01-20T21:31:21.437Z,-0.20
2023-01-20T21:33:53.670Z,-0.20
2023-01-20T21:36:21.965Z,-0.30
2023-01-20T21:38:49.261Z,-0.20
2023-01-20T21:41:16.710Z,-0.30
2023-01-20T21:44:04.025Z,-0.30
2023-01-20T21:46:35.275Z,-0.40
2023-01-20T21:49:23.061Z,-0.40
2023-01-20T21:52:08.506Z,-0.50
2023-01-20T21:54:35.488Z,-0.50
2023-01-20T21:57:02.790Z,-0.60
2023-01-20T21:59:30.267Z,-0.60
2023-01-20T22:01:57.123Z,-0.60
2023-01-20T22:04:23.947Z,-0.60
2023-01-20T22:06:50.879Z,-0.60
2023-01-20T22:09:17.693Z,-0.60
2023-01-20T22:11:44.633Z,-0.70
2023-01-20T22:14:11.709Z,-0.70
2023-01-20T22:16:38.610Z,-0.70
2023-01-20T22:19:05.473Z,-0.70
2023-01-20T22:21:32.793Z,-0.70
2023-01-20T22:24:01.587Z,-0.80
2023-01-20T22:26:28.428Z,-0.80
2023-01-20T22:28:55.278Z,-0.80
2023-01-20T22:31:23.976Z,-0.90
2023-01-20T22:33:55.745Z,-0.90
2023-01-20T22:36:24.390Z,-0.90
2023-01-20T22:38:52.553Z,-1.00
2023-01-20T22:41:20.673Z,-1.00
2023-01-20T22:43:48.312Z,-1.00
2023-01-20T22:46:17.709Z,-1.10
2023-01-20T22:48:45.123Z,-1.10
2023-01-20T22:51:16.607Z,-1.20
2023-01-20T22:53:43.473Z,-1.20
2023-01-20T22:56:18.809Z,-1.20
2023-01-20T22:58:46.351Z,-1.30
2023-01-20T23:01:29.775Z,-1.30
2023-01-20T23:03:59.617Z,-1.30
2023-01-20T23:06:28.360Z,-1.30
2023-01-20T23:08:55.500Z,-1.40
2023-01-20T23:11:23.631Z,-1.40
2023-01-20T23:13:51.009Z,-1.40
2023-01-20T23:16:22.173Z,-1.40
2023-01-20T23:18:50.853Z,-1.50
2023-01-20T23:21:18.452Z,-1.50
2023-01-20T23:23:45.400Z,-1.50
2023-01-20T23:26:18.918Z,-1.60
2023-01-20T23:28:47.119Z,-1.60
2023-01-20T23:31:16.010Z,-1.70
2023-01-20T23:33:44.204Z,-1.70
2023-01-20T23:36:21.301Z,-1.80
2023-01-20T23:38:48.470Z,-1.80
2023-01-20T23:41:16.000Z,-1.90
2023-01-20T23:43:43.215Z,-2.00
2023-01-20T23:46:10.967Z,-2.00
2023-01-20T23:48:38.302Z,-2.00
2023-01-20T23:51:06.600Z,-2.00
2023-01-20T23:53:36.562Z,-2.00
2023-01-20T23:56:24.686Z,-2.00
2023-01-20T23:58:52.061Z,-2.00
